createdAt,value
2019-02-02T00:00:43.557Z,19.17
2019-02-02T00:03:12.818Z,19.87
2019-02-02T00:05:41.895Z,19.23
2019-02-02T00:08:11.309Z,20.30
2019-02-02T00:10:40.892Z,19.70
2019-02-02T00:13:09.976Z,19.07
2019-02-02T00:15:39.036Z,20.40
2019-02-02T00:18:08.143Z,18.83
2019-02-02T00:20:37.458Z,19.03
2019-02-02T00:23:25.668Z,18.50
2019-02-02T00:26:13.839Z,18.50
2019-02-02T00:29:02.839Z,19.40
2019-02-02T00:31:51.047Z,18.40
2019-02-02T00:34:39.227Z,19.93
2019-02-02T00:37:27.811Z,20.93
2019-02-02T00:40:16.091Z,18.57
2019-02-02T00:43:04.870Z,19.50
2019-02-02T00:45:53.050Z,19.17
2019-02-02T00:48:41.242Z,18.10
2019-02-02T00:51:29.840Z,20.13
2019-02-02T00:54:18.042Z,19.93
2019-02-02T00:57:06.234Z,18.27
2019-02-02T00:59:46.932Z,19.90
2019-02-02T01:02:27.960Z,17.70
2019-02-02T01:05:08.764Z,18.20
2019-02-02T01:07:49.917Z,19.93
2019-02-02T01:10:30.536Z,19.63
2019-02-02T01:13:11.440Z,19.87
2019-02-02T01:15:52.288Z,19.83
2019-02-02T01:18:33.240Z,20.93
2019-02-02T01:21:14.353Z,19.10
2019-02-02T01:23:54.879Z,22.40
2019-02-02T01:26:36.026Z,18.87
2019-02-02T01:29:17.214Z,20.77
2019-02-02T01:31:58.388Z,19.50
2019-02-02T01:34:39.283Z,20.30
2019-02-02T01:37:20.247Z,20.97
2019-02-02T01:40:00.986Z,22.87
2019-02-02T01:42:42.011Z,21.40
2019-02-02T01:45:23.014Z,21.70
2019-02-02T01:48:03.952Z,20.20
2019-02-02T01:50:44.676Z,21.00
2019-02-02T01:53:25.127Z,21.33
2019-02-02T01:56:05.948Z,22.60
2019-02-02T01:58:47.460Z,21.30
2019-02-02T02:01:28.960Z,22.37
2019-02-02T02:04:09.527Z,21.17
2019-02-02T02:06:50.608Z,22.10
2019-02-02T02:09:31.884Z,18.97
2019-02-02T02:12:12.269Z,20.17
2019-02-02T02:14:53.360Z,23.57
2019-02-02T02:17:34.138Z,21.77
2019-02-02T02:20:14.666Z,21.10
2019-02-02T02:22:55.231Z,22.77
2019-02-02T02:25:36.024Z,22.60
2019-02-02T02:28:27.533Z,21.50
2019-02-02T02:30:59.533Z,22.43
2019-02-02T02:33:40.727Z,23.20
2019-02-02T02:36:22.367Z,21.37
2019-02-02T02:39:04.547Z,21.37
2019-02-02T02:44:27.963Z,25.03
2019-02-02T02:47:09.035Z,24.07
2019-02-02T02:49:49.518Z,22.27
2019-02-02T02:52:30.508Z,21.63
2019-02-02T02:55:11.295Z,24.30
2019-02-02T02:57:52.643Z,23.57
2019-02-02T03:00:33.669Z,23.17
2019-02-02T03:03:14.477Z,21.70
2019-02-02T03:05:55.444Z,22.47
2019-02-02T03:08:36.203Z,22.37
2019-02-02T03:11:17.487Z,23.50
2019-02-02T03:13:58.183Z,23.80
2019-02-02T03:16:38.930Z,22.97
2019-02-02T03:19:19.732Z,23.40
2019-02-02T03:22:00.706Z,24.13
2019-02-02T03:24:41.375Z,21.87
2019-02-02T03:27:22.122Z,21.40
2019-02-02T03:30:03.355Z,23.43
2019-02-02T03:32:44.490Z,24.07
2019-02-02T03:35:24.959Z,22.43
2019-02-02T03:38:06.186Z,23.67
2019-02-02T03:40:47.026Z,24.30
2019-02-02T03:43:28.039Z,23.40
2019-02-02T03:46:09.372Z,27.70
2019-02-02T03:48:50.400Z,22.77
2019-02-02T03:51:30.936Z,23.43
2019-02-02T03:54:11.855Z,22.27
2019-02-02T03:56:52.574Z,22.70
2019-02-02T03:59:33.357Z,24.13
2019-02-02T04:02:14.187Z,23.93
2019-02-02T04:04:55.152Z,23.60
2019-02-02T04:07:35.756Z,23.60
2019-02-02T04:10:16.686Z,23.30
2019-02-02T04:12:57.492Z,23.30
2019-02-02T04:15:39.346Z,24.53
2019-02-02T04:18:20.375Z,25.67
2019-02-02T04:21:01.422Z,25.57
2019-02-02T04:23:42.480Z,24.43
2019-02-02T04:26:23.751Z,25.40
2019-02-02T04:29:04.191Z,24.67
2019-02-02T04:31:45.135Z,24.97
2019-02-02T04:34:25.946Z,23.43
2019-02-02T04:37:07.028Z,23.47
2019-02-02T04:39:47.759Z,27.23
2019-02-02T04:42:29.259Z,24.67
2019-02-02T04:45:10.002Z,23.87
2019-02-02T04:47:50.883Z,24.73
2019-02-02T04:50:31.428Z,23.90
2019-02-02T04:53:12.603Z,25.77
2019-02-02T04:55:53.424Z,23.97
2019-02-02T04:58:34.563Z,25.17
2019-02-02T05:01:16.229Z,24.80
2019-02-02T05:03:57.057Z,23.50
2019-02-02T05:06:37.697Z,26.93
2019-02-02T05:09:18.431Z,25.67
2019-02-02T05:11:59.420Z,23.97
2019-02-02T05:14:40.344Z,26.30
2019-02-02T05:17:21.386Z,24.80
2019-02-02T05:20:02.391Z,24.40
2019-02-02T05:22:42.982Z,24.20
2019-02-02T05:25:23.724Z,28.03
2019-02-02T05:28:04.416Z,26.33
2019-02-02T05:30:45.640Z,24.97
2019-02-02T05:33:26.703Z,26.10
2019-02-02T05:36:07.862Z,25.53
2019-02-02T05:38:48.390Z,26.47
2019-02-02T05:41:29.384Z,25.83
2019-02-02T05:44:10.084Z,26.10
2019-02-02T05:46:51.007Z,26.00
2019-02-02T05:49:31.920Z,28.93
2019-02-02T05:52:12.884Z,27.63
2019-02-02T05:54:53.804Z,26.70
2019-02-02T05:57:34.814Z,27.57
2019-02-02T06:00:17.955Z,26.17
2019-02-02T06:02:58.355Z,29.00
2019-02-02T06:05:39.675Z,27.70
2019-02-02T06:08:20.734Z,27.10
2019-02-02T06:10:50.135Z,29.73
2019-02-02T06:13:38.358Z,28.17
2019-02-02T06:16:26.835Z,27.23
2019-02-02T06:19:15.359Z,24.60
2019-02-02T06:22:03.642Z,26.17
2019-02-02T06:24:52.766Z,24.77
2019-02-02T06:27:34.620Z,28.27
2019-02-02T06:30:15.456Z,28.10
2019-02-02T06:32:56.682Z,29.53
2019-02-02T06:35:37.679Z,32.37
2019-02-02T06:38:19.701Z,39.93
2019-02-02T06:41:00.838Z,32.10
2019-02-02T06:43:41.811Z,28.10
2019-02-02T06:46:23.131Z,27.83
2019-02-02T06:49:03.994Z,28.37
2019-02-02T06:51:45.264Z,30.63
2019-02-02T06:54:26.151Z,32.33
2019-02-02T06:59:49.149Z,32.80
2019-02-02T07:02:30.780Z,29.60
2019-02-02T07:05:11.808Z,30.63
2019-02-02T07:07:53.034Z,30.23
2019-02-02T07:10:33.780Z,24.33
2019-02-02T07:13:15.324Z,29.13
2019-02-02T07:15:55.823Z,27.67
2019-02-02T07:18:37.070Z,26.23
2019-02-02T07:21:18.163Z,29.67
2019-02-02T07:23:59.624Z,32.07
2019-02-02T07:26:40.046Z,27.10
2019-02-02T07:29:20.920Z,29.33
2019-02-02T07:32:02.047Z,29.00
2019-02-02T07:34:43.051Z,32.23
2019-02-02T07:37:23.527Z,30.30
2019-02-02T07:40:04.167Z,31.50
2019-02-02T07:42:45.273Z,31.00
2019-02-02T07:45:26.111Z,31.80
2019-02-02T07:48:06.709Z,31.30
2019-02-02T07:50:47.575Z,31.57
2019-02-02T07:53:28.571Z,33.47
2019-02-02T07:56:09.408Z,34.43
2019-02-02T07:58:50.551Z,31.93
2019-02-02T08:01:31.736Z,30.87
2019-02-02T08:04:13.059Z,32.00
2019-02-02T08:06:53.656Z,30.30
2019-02-02T08:09:34.248Z,31.90
2019-02-02T08:12:14.986Z,34.30
2019-02-02T08:14:55.751Z,36.33
2019-02-02T08:17:36.827Z,35.30
2019-02-02T08:20:17.928Z,35.67
2019-02-02T08:22:58.599Z,42.57
2019-02-02T08:25:39.510Z,48.20
2019-02-02T08:28:21.775Z,44.60
2019-02-02T08:31:03.284Z,41.90
2019-02-02T08:33:45.424Z,43.20
2019-02-02T08:36:26.942Z,38.90
2019-02-02T08:39:07.652Z,37.70
2019-02-02T08:41:50.773Z,37.30
2019-02-02T08:44:31.451Z,33.97
2019-02-02T08:47:12.546Z,34.30
2019-02-02T08:49:52.999Z,35.30
2019-02-02T08:52:33.748Z,32.63
2019-02-02T08:55:14.812Z,32.73
2019-02-02T08:57:55.826Z,33.90
2019-02-02T09:00:36.626Z,34.90
2019-02-02T09:03:18.418Z,34.40
2019-02-02T09:06:00.103Z,37.13
2019-02-02T09:11:23.159Z,32.50
2019-02-02T09:14:03.747Z,32.00
2019-02-02T09:16:45.153Z,34.57
2019-02-02T09:19:26.416Z,32.20
2019-02-02T09:22:08.223Z,35.07
2019-02-02T09:24:51.723Z,30.67
2019-02-02T09:27:31.811Z,32.50
2019-02-02T09:30:15.725Z,34.63
2019-02-02T09:35:39.220Z,33.13
2019-02-02T09:38:20.319Z,35.80
2019-02-02T09:41:01.200Z,31.53
2019-02-02T09:43:45.203Z,38.77
2019-02-02T09:46:26.407Z,38.27
2019-02-02T09:49:09.801Z,39.23
2019-02-02T09:51:54.151Z,36.07
2019-02-02T09:54:35.714Z,36.50
2019-02-02T09:57:19.618Z,38.97
2019-02-02T10:00:01.149Z,39.50
2019-02-02T10:02:42.513Z,40.20
2019-02-02T10:05:24.231Z,41.03
2019-02-02T10:08:05.715Z,36.97
2019-02-02T10:10:47.308Z,39.50
2019-02-02T10:13:28.341Z,36.87
2019-02-02T10:16:09.310Z,36.07
2019-02-02T10:18:38.571Z,36.20
2019-02-02T10:21:27.167Z,35.23
2019-02-02T10:23:56.828Z,35.77
2019-02-02T10:26:45.175Z,36.40
2019-02-02T10:29:34.165Z,38.07
2019-02-02T10:32:15.748Z,35.53
2019-02-02T10:34:56.294Z,34.63
2019-02-02T10:37:36.735Z,34.80
2019-02-02T10:40:18.686Z,34.17
2019-02-02T10:42:48.110Z,33.33
2019-02-02T10:45:36.611Z,34.80
2019-02-02T10:48:24.819Z,35.60
2019-02-02T10:51:13.519Z,33.00
2019-02-02T10:54:01.752Z,34.60
2019-02-02T10:56:50.563Z,32.13
2019-02-02T10:59:38.842Z,34.77
2019-02-02T11:02:27.838Z,33.40
2019-02-02T11:05:16.533Z,32.83
2019-02-02T11:11:15.052Z,31.90
2019-02-02T11:14:03.493Z,35.70
2019-02-02T11:16:51.950Z,32.20
2019-02-02T11:19:40.363Z,34.43
2019-02-02T11:22:28.856Z,32.77
2019-02-02T11:25:17.522Z,32.53
2019-02-02T11:28:05.877Z,31.43
2019-02-02T11:30:54.520Z,30.57
2019-02-02T11:33:44.378Z,29.83
2019-02-02T11:36:33.207Z,33.73
2019-02-02T11:39:21.719Z,31.87
2019-02-02T11:41:50.879Z,32.13
2019-02-02T11:44:20.221Z,35.80
2019-02-02T11:47:09.425Z,33.03
2019-02-02T11:49:58.346Z,31.97
2019-02-02T11:52:47.031Z,33.50
2019-02-02T11:55:35.651Z,31.97
2019-02-02T11:58:24.449Z,32.30
2019-02-02T12:01:12.767Z,34.23
2019-02-02T12:04:01.027Z,35.30
2019-02-02T12:06:42.746Z,33.90
2019-02-02T12:09:23.600Z,35.60
2019-02-02T12:12:04.507Z,30.50
2019-02-02T12:14:45.680Z,32.00
2019-02-02T12:17:26.446Z,33.77
2019-02-02T12:20:07.372Z,28.80
2019-02-02T12:22:48.978Z,32.10
2019-02-02T12:25:29.908Z,32.63
2019-02-02T12:28:02.108Z,30.90
2019-02-02T12:30:33.032Z,31.37
2019-02-02T12:33:06.530Z,31.97
2019-02-02T12:35:36.020Z,31.03
2019-02-02T12:38:05.730Z,32.10
2019-02-02T12:40:35.280Z,29.33
2019-02-02T12:43:05.014Z,31.10
2019-02-02T12:45:59.512Z,30.40
2019-02-02T12:48:32.217Z,31.73
2019-02-02T12:51:00.223Z,30.60
2019-02-02T12:53:30.052Z,32.20
2019-02-02T12:55:59.214Z,30.27
2019-02-02T12:58:28.339Z,30.07
2019-02-02T13:00:57.507Z,30.67
2019-02-02T13:03:27.266Z,31.67
2019-02-02T13:05:56.441Z,31.37
2019-02-02T13:08:25.902Z,29.63
2019-02-02T13:10:55.047Z,30.50
2019-02-02T13:13:24.555Z,31.20
2019-02-02T13:15:54.270Z,29.90
2019-02-02T13:18:23.447Z,30.60
2019-02-02T13:20:52.835Z,29.90
2019-02-02T13:23:22.268Z,29.57
2019-02-02T13:25:51.379Z,29.60
2019-02-02T13:28:20.813Z,30.17
2019-02-02T13:30:50.057Z,26.50
2019-02-02T13:33:19.482Z,25.10
2019-02-02T13:35:49.510Z,25.53
2019-02-02T13:38:18.689Z,25.53
2019-02-02T13:40:47.921Z,25.40
2019-02-02T13:43:17.172Z,27.33
2019-02-02T13:45:46.272Z,26.27
2019-02-02T13:48:15.707Z,28.43
2019-02-02T13:50:44.898Z,25.63
2019-02-02T13:53:14.241Z,29.17
2019-02-02T13:55:43.611Z,26.90
2019-02-02T13:58:12.816Z,29.00
2019-02-02T14:00:41.993Z,29.80
2019-02-02T14:03:11.700Z,28.97
2019-02-02T14:05:40.886Z,29.90
2019-02-02T14:08:10.043Z,30.27
2019-02-02T14:10:39.280Z,35.10
2019-02-02T14:13:08.567Z,36.00
2019-02-02T14:15:39.378Z,29.40
2019-02-02T14:18:08.847Z,31.73
2019-02-02T14:20:38.218Z,29.27
2019-02-02T14:23:07.812Z,29.97
2019-02-02T14:25:36.972Z,30.57
2019-02-02T14:28:06.203Z,29.73
2019-02-02T14:30:35.314Z,31.43
2019-02-02T14:33:13.797Z,29.17
2019-02-02T14:35:35.743Z,28.83
2019-02-02T14:38:05.306Z,30.20
2019-02-02T14:40:34.468Z,30.13
2019-02-02T14:43:03.750Z,31.70
2019-02-02T14:45:32.850Z,30.43
2019-02-02T14:48:02.089Z,29.50
2019-02-02T14:50:32.279Z,29.20
2019-02-02T14:53:01.755Z,31.80
2019-02-02T14:55:31.021Z,30.83
2019-02-02T14:58:00.205Z,32.70
2019-02-02T15:00:30.496Z,31.80
2019-02-02T15:03:03.123Z,31.50
2019-02-02T15:05:42.217Z,32.63
2019-02-02T15:08:01.803Z,31.93
2019-02-02T15:10:31.269Z,31.30
2019-02-02T15:13:00.426Z,33.03
2019-02-02T15:15:32.769Z,31.27
2019-02-02T15:18:02.189Z,30.27
2019-02-02T15:20:33.591Z,30.50
2019-02-02T15:23:02.751Z,34.20
2019-02-02T15:25:31.970Z,31.13
2019-02-02T15:28:01.483Z,31.70
2019-02-02T15:30:31.112Z,29.07
2019-02-02T15:33:08.938Z,32.53
2019-02-02T15:35:38.340Z,30.90
2019-02-02T15:38:09.727Z,32.37
2019-02-02T15:40:39.419Z,31.70
2019-02-02T15:43:08.964Z,29.47
2019-02-02T15:45:38.356Z,28.93
2019-02-02T15:48:07.864Z,33.23
2019-02-02T15:50:36.981Z,33.07
2019-02-02T15:53:06.508Z,35.10
2019-02-02T15:55:36.730Z,36.60
2019-02-02T15:58:06.356Z,32.57
2019-02-02T16:00:37.949Z,31.40
2019-02-02T16:03:07.871Z,31.53
2019-02-02T16:05:40.670Z,29.80
2019-02-02T16:08:21.146Z,30.13
2019-02-02T16:10:52.531Z,33.20
2019-02-02T16:13:24.323Z,33.23
2019-02-02T16:15:57.164Z,31.57
2019-02-02T16:18:27.293Z,30.03
2019-02-02T16:20:58.486Z,31.77
2019-02-02T16:23:28.191Z,31.13
2019-02-02T16:25:57.583Z,29.33
2019-02-02T16:28:27.216Z,32.10
2019-02-02T16:30:56.495Z,30.17
2019-02-02T16:33:25.759Z,33.00
2019-02-02T16:35:55.438Z,29.80
2019-02-02T16:38:24.700Z,31.50
2019-02-02T16:40:54.183Z,29.07
2019-02-02T16:43:23.748Z,29.57
2019-02-02T16:45:53.125Z,29.67
2019-02-02T16:48:22.555Z,30.17
2019-02-02T16:50:51.939Z,28.83
2019-02-02T16:53:22.027Z,28.97
2019-02-02T16:55:51.345Z,28.50
2019-02-02T16:58:20.547Z,28.10
2019-02-02T17:00:50.380Z,28.70
2019-02-02T17:03:20.413Z,27.07
2019-02-02T17:05:49.966Z,29.93
2019-02-02T17:08:19.492Z,30.47
2019-02-02T17:10:48.628Z,27.40
2019-02-02T17:13:18.377Z,26.00
2019-02-02T17:15:47.935Z,29.07
2019-02-02T17:18:17.047Z,27.47
2019-02-02T17:20:47.615Z,27.10
2019-02-02T17:23:17.265Z,27.73
2019-02-02T17:25:46.476Z,28.03
2019-02-02T17:28:15.723Z,27.40
2019-02-02T17:30:45.233Z,27.53
2019-02-02T17:33:16.220Z,25.60
2019-02-02T17:35:46.303Z,27.70
2019-02-02T17:38:16.212Z,28.77
2019-02-02T17:40:45.432Z,25.27
2019-02-02T17:43:14.925Z,28.07
2019-02-02T17:45:44.993Z,29.53
2019-02-02T17:48:14.211Z,29.23
2019-02-02T17:50:43.385Z,25.97
2019-02-02T17:53:12.511Z,28.63
2019-02-02T17:55:41.687Z,28.23
2019-02-02T17:58:13.282Z,28.10
2019-02-02T18:00:57.248Z,26.17
2019-02-02T18:03:26.831Z,27.73
2019-02-02T18:05:56.564Z,69.33
2019-02-02T18:08:26.270Z,33.80
2019-02-02T18:10:55.620Z,30.00
2019-02-02T18:13:24.725Z,32.30
2019-02-02T18:15:53.893Z,30.27
2019-02-02T18:18:23.719Z,30.70
2019-02-02T18:20:52.895Z,29.13
2019-02-02T18:23:22.280Z,33.00
2019-02-02T18:25:51.435Z,31.90
2019-02-02T18:31:15.598Z,33.57
2019-02-02T18:33:56.966Z,31.90
2019-02-02T18:36:38.427Z,30.77
2019-02-02T18:45:11.506Z,30.53
2019-02-02T18:50:43.061Z,32.10
2019-02-02T18:53:24.452Z,30.83
2019-02-02T18:56:02.766Z,31.93
2019-02-02T18:58:32.011Z,30.10
2019-02-02T19:01:20.496Z,31.37
2019-02-02T19:04:09.228Z,29.77
2019-02-02T19:06:57.721Z,32.07
2019-02-02T19:09:45.995Z,30.60
2019-02-02T19:12:34.537Z,31.30
2019-02-02T19:15:22.803Z,30.70
2019-02-02T19:18:11.019Z,31.13
2019-02-02T19:20:59.816Z,30.47
2019-02-02T19:23:48.027Z,36.10
2019-02-02T19:26:29.714Z,30.53
2019-02-02T19:29:10.196Z,30.10
2019-02-02T19:31:39.438Z,29.70
2019-02-02T19:34:28.510Z,32.07
2019-02-02T19:37:17.080Z,29.77
2019-02-02T19:40:06.390Z,30.17
2019-02-02T19:42:55.352Z,31.83
2019-02-02T19:45:43.690Z,30.33
2019-02-02T19:48:32.379Z,31.93
2019-02-02T19:51:20.891Z,30.67
2019-02-02T19:54:09.484Z,31.67
2019-02-02T19:56:58.109Z,30.97
2019-02-02T19:59:46.664Z,26.50
2019-02-02T20:02:35.623Z,25.87
2019-02-02T20:05:28.845Z,22.70
2019-02-02T20:08:13.783Z,25.20
2019-02-02T20:11:02.042Z,23.67
2019-02-02T20:13:50.779Z,23.07
2019-02-02T20:16:39.048Z,22.53
2019-02-02T20:19:27.263Z,22.40
2019-02-02T20:22:15.833Z,21.10
2019-02-02T20:25:04.869Z,22.37
2019-02-02T20:27:53.250Z,21.30
2019-02-02T20:30:33.726Z,20.47
2019-02-02T20:33:14.971Z,21.40
2019-02-02T20:35:56.628Z,20.20
2019-02-02T20:38:26.930Z,19.60
2019-02-02T20:41:15.187Z,20.23
2019-02-02T20:47:12.727Z,21.60
2019-02-02T20:50:01.534Z,22.77
2019-02-02T20:52:50.336Z,21.80
2019-02-02T20:55:39.980Z,20.23
2019-02-02T20:58:28.395Z,21.67
2019-02-02T21:01:16.791Z,21.00
2019-02-02T21:04:05.124Z,20.07
2019-02-02T21:06:34.931Z,23.53
2019-02-02T21:09:23.526Z,22.87
2019-02-02T21:12:12.138Z,22.17
2019-02-02T21:14:41.303Z,23.07
2019-02-02T21:17:31.239Z,22.47
2019-02-02T21:20:20.537Z,24.27
2019-02-02T21:23:09.143Z,20.90
2019-02-02T21:25:58.076Z,24.50
2019-02-02T21:28:50.645Z,24.77
2019-02-02T21:31:36.616Z,25.80
2019-02-02T21:34:25.215Z,24.60
2019-02-02T21:37:13.560Z,22.53
2019-02-02T21:42:37.536Z,21.40
2019-02-02T21:45:19.254Z,21.70
2019-02-02T21:48:00.611Z,21.50
2019-02-02T21:50:41.472Z,20.87
2019-02-02T21:53:23.030Z,21.77
2019-02-02T21:56:05.041Z,21.77
2019-02-02T21:58:46.413Z,21.80
2019-02-02T22:03:58.435Z,23.33
2019-02-02T22:06:47.050Z,21.20
2019-02-02T22:09:35.363Z,22.10
2019-02-02T22:12:23.608Z,21.80
2019-02-02T22:15:13.984Z,23.77
2019-02-02T22:17:43.539Z,24.50
2019-02-02T22:20:31.806Z,21.13
2019-02-02T22:23:20.278Z,23.77
2019-02-02T22:26:08.971Z,21.37
2019-02-02T22:28:57.990Z,22.37
2019-02-02T22:31:28.555Z,24.00
2019-02-02T22:34:16.772Z,22.33
2019-02-02T22:37:05.112Z,23.17
2019-02-02T22:39:53.365Z,24.23
2019-02-02T22:42:41.924Z,23.67
2019-02-02T22:45:30.259Z,23.07
2019-02-02T22:48:18.809Z,26.07
2019-02-02T22:51:07.314Z,29.20
2019-02-02T22:53:48.247Z,24.50
2019-02-02T22:56:29.580Z,24.10
2019-02-02T22:59:10.871Z,23.10
2019-02-02T23:01:43.733Z,22.73
2019-02-02T23:04:51.099Z,22.23
2019-02-02T23:07:58.755Z,21.70
2019-02-02T23:11:06.421Z,20.90
2019-02-02T23:13:55.660Z,21.13
2019-02-02T23:16:43.927Z,19.37
2019-02-02T23:19:32.925Z,21.77
2019-02-02T23:22:21.407Z,20.97
2019-02-02T23:25:09.642Z,23.03
2019-02-02T23:27:58.269Z,20.00
2019-02-02T23:30:39.362Z,18.90
2019-02-02T23:33:20.458Z,19.37
2019-02-02T23:36:01.352Z,18.50
2019-02-02T23:38:43.127Z,18.70
2019-02-02T23:41:24.196Z,15.67
2019-02-02T23:44:05.068Z,15.63
2019-02-02T23:46:45.860Z,16.63
2019-02-02T23:49:26.812Z,17.07
2019-02-02T23:52:07.833Z,16.00
2019-02-02T23:54:48.489Z,16.17
2019-02-02T23:57:30.053Z,16.70
